createdAt,value
2022-09-22T00:01:28.152Z,56.00
2022-09-22T00:03:57.520Z,55.80
2022-09-22T00:06:30.530Z,55.90
2022-09-22T00:09:02.675Z,55.80
2022-09-22T00:11:39.086Z,56.10
2022-09-22T00:14:20.563Z,55.90
2022-09-22T00:17:01.090Z,55.50
2022-09-22T00:19:30.858Z,56.00
2022-09-22T00:21:58.364Z,55.90
2022-09-22T00:24:26.752Z,56.00
2022-09-22T00:26:57.404Z,56.00
2022-09-22T00:29:25.794Z,55.90
2022-09-22T00:31:53.015Z,55.90
2022-09-22T00:34:22.882Z,56.00
2022-09-22T00:36:50.335Z,56.50
2022-09-22T00:39:18.272Z,55.80
2022-09-22T00:41:48.116Z,56.10
2022-09-22T00:44:26.978Z,55.90
2022-09-22T00:47:15.581Z,55.80
2022-09-22T00:50:00.770Z,55.70
2022-09-22T00:52:33.071Z,55.90
2022-09-22T00:55:04.624Z,56.00
2022-09-22T00:57:35.038Z,55.90
2022-09-22T01:00:04.914Z,56.70
2022-09-22T01:02:31.887Z,55.90
2022-09-22T01:04:59.246Z,55.90
2022-09-22T01:07:29.439Z,55.80
2022-09-22T01:09:56.556Z,56.10
2022-09-22T01:12:26.047Z,56.00
2022-09-22T01:15:05.754Z,56.00
2022-09-22T01:18:14.180Z,55.60
2022-09-22T01:21:07.553Z,55.80
2022-09-22T01:24:08.145Z,55.70
2022-09-22T01:27:13.032Z,55.80
2022-09-22T01:29:39.866Z,55.60
2022-09-22T01:32:21.178Z,55.80
2022-09-22T01:35:06.554Z,55.80
2022-09-22T01:37:54.388Z,55.70
2022-09-22T01:40:30.598Z,55.90
2022-09-22T01:43:13.385Z,55.70
2022-09-22T01:45:44.541Z,55.90
2022-09-22T01:48:25.808Z,56.00
2022-09-22T01:51:00.737Z,55.50
2022-09-22T01:53:34.454Z,55.70
2022-09-22T01:56:05.831Z,56.50
2022-09-22T01:58:37.752Z,55.90
2022-09-22T02:01:38.110Z,55.90
2022-09-22T02:04:14.446Z,55.50
2022-09-22T02:06:48.988Z,55.90
2022-09-22T02:09:23.944Z,56.00
2022-09-22T02:11:50.909Z,55.70
2022-09-22T02:14:18.003Z,56.30
2022-09-22T02:16:45.403Z,55.90
2022-09-22T02:19:34.531Z,56.00
2022-09-22T02:22:01.594Z,55.60
2022-09-22T02:24:37.705Z,56.00
2022-09-22T02:27:14.002Z,55.70
2022-09-22T02:29:46.489Z,56.00
2022-09-22T02:32:16.894Z,56.00
2022-09-22T02:34:46.136Z,55.90
2022-09-22T02:37:26.053Z,56.10
2022-09-22T02:40:04.229Z,55.70
2022-09-22T02:42:41.008Z,56.60
2022-09-22T02:45:23.329Z,56.70
2022-09-22T02:47:57.325Z,56.00
2022-09-22T02:50:27.202Z,56.10
2022-09-22T02:53:01.299Z,56.00
2022-09-22T02:55:28.345Z,56.00
2022-09-22T02:57:55.525Z,56.20
2022-09-22T03:00:22.621Z,56.10
2022-09-22T03:02:49.580Z,56.00
2022-09-22T03:05:16.678Z,55.90
2022-09-22T03:07:43.535Z,55.90
2022-09-22T03:10:11.376Z,56.10
2022-09-22T03:13:02.343Z,56.30
2022-09-22T03:15:29.854Z,56.30
2022-09-22T03:17:56.822Z,56.00
2022-09-22T03:20:23.776Z,56.10
2022-09-22T03:22:50.629Z,56.10
2022-09-22T03:25:17.621Z,56.10
2022-09-22T03:27:44.476Z,56.20
2022-09-22T03:30:12.156Z,56.10
2022-09-22T03:32:39.068Z,56.10
2022-09-22T03:35:07.118Z,56.20
2022-09-22T03:37:35.082Z,55.90
2022-09-22T03:40:03.441Z,55.90
2022-09-22T03:42:30.512Z,55.90
2022-09-22T03:44:57.463Z,56.00
2022-09-22T03:47:24.422Z,56.10
2022-09-22T03:49:51.615Z,56.30
2022-09-22T03:52:18.470Z,56.00
2022-09-22T03:54:45.296Z,56.90
2022-09-22T03:57:12.156Z,56.00
2022-09-22T03:59:39.047Z,56.00
2022-09-22T04:02:05.956Z,56.10
2022-09-22T04:04:32.978Z,56.00
2022-09-22T04:07:06.131Z,56.10
2022-09-22T04:09:34.131Z,56.10
2022-09-22T04:12:01.145Z,56.10
2022-09-22T04:14:28.126Z,55.80
2022-09-22T04:16:55.015Z,55.90
2022-09-22T04:19:22.806Z,55.80
2022-09-22T04:21:54.680Z,55.90
2022-09-22T04:24:24.612Z,55.80
2022-09-22T04:27:15.533Z,55.70
2022-09-22T04:29:38.747Z,56.00
2022-09-22T04:32:05.939Z,55.90
2022-09-22T04:34:33.151Z,56.10
2022-09-22T04:37:00.045Z,56.20
2022-09-22T04:39:28.718Z,56.10
2022-09-22T04:41:55.788Z,56.20
2022-09-22T04:44:22.674Z,56.10
2022-09-22T04:46:50.317Z,55.90
2022-09-22T04:49:18.127Z,55.60
2022-09-22T04:51:45.419Z,56.10
2022-09-22T04:54:14.072Z,56.50
2022-09-22T04:56:42.656Z,56.60
2022-09-22T04:59:09.991Z,56.60
2022-09-22T05:01:36.948Z,55.70
2022-09-22T05:04:04.253Z,56.50
2022-09-22T05:06:31.242Z,57.60
2022-09-22T05:08:58.711Z,58.40
2022-09-22T05:11:25.733Z,58.80
2022-09-22T05:13:52.658Z,59.30
2022-09-22T05:16:20.097Z,61.20
2022-09-22T05:18:50.199Z,61.00
2022-09-22T05:21:18.870Z,59.10
2022-09-22T05:23:46.278Z,58.30
2022-09-22T05:26:13.608Z,58.50
2022-09-22T05:28:40.960Z,57.70
2022-09-22T05:31:08.528Z,57.30
2022-09-22T05:33:35.374Z,57.60
2022-09-22T05:36:02.801Z,57.40
2022-09-22T05:38:29.635Z,57.20
2022-09-22T05:40:56.487Z,57.30
2022-09-22T05:43:23.288Z,57.50
2022-09-22T05:45:50.235Z,57.30
2022-09-22T05:48:17.190Z,57.60
2022-09-22T05:50:45.433Z,57.10
2022-09-22T05:53:13.110Z,57.20
2022-09-22T05:55:41.035Z,57.30
2022-09-22T05:58:12.215Z,56.60
2022-09-22T06:00:41.173Z,56.40
2022-09-22T06:03:08.594Z,56.60
2022-09-22T06:05:38.378Z,56.20
2022-09-22T06:08:07.858Z,56.20
2022-09-22T06:10:36.659Z,56.40
2022-09-22T06:13:11.132Z,56.20
2022-09-22T06:15:38.771Z,56.60
2022-09-22T06:18:11.843Z,56.20
2022-09-22T06:20:42.514Z,56.20
2022-09-22T06:23:09.326Z,56.20
2022-09-22T06:25:36.245Z,56.20
2022-09-22T06:28:08.072Z,56.50
2022-09-22T06:30:38.159Z,56.10
2022-09-22T06:33:05.635Z,56.10
2022-09-22T06:35:37.744Z,56.20
2022-09-22T06:38:06.424Z,56.20
2022-09-22T06:40:36.421Z,56.30
2022-09-22T06:43:12.851Z,56.30
2022-09-22T06:45:40.404Z,56.40
2022-09-22T06:48:10.385Z,56.20
2022-09-22T06:50:38.844Z,56.50
2022-09-22T06:53:07.724Z,56.60
2022-09-22T06:55:36.113Z,57.20
2022-09-22T06:58:03.256Z,56.40
2022-09-22T07:00:32.876Z,56.80
2022-09-22T07:03:15.593Z,56.70
2022-09-22T07:05:43.447Z,56.40
2022-09-22T07:08:10.439Z,57.50
2022-09-22T07:10:38.277Z,57.70
2022-09-22T07:13:06.177Z,57.20
2022-09-22T07:15:35.613Z,56.90
2022-09-22T07:18:03.448Z,57.10
2022-09-22T07:20:30.493Z,57.40
2022-09-22T07:23:00.737Z,57.40
2022-09-22T07:25:29.392Z,57.20
2022-09-22T07:27:59.232Z,57.00
2022-09-22T07:30:26.295Z,57.00
2022-09-22T07:32:53.999Z,57.30
2022-09-22T07:35:20.911Z,57.10
2022-09-22T07:37:47.757Z,56.80
2022-09-22T07:40:14.851Z,56.80
2022-09-22T07:42:41.761Z,56.40
2022-09-22T07:45:12.768Z,56.90
2022-09-22T07:47:58.610Z,56.50
2022-09-22T07:50:25.539Z,56.70
2022-09-22T07:52:53.523Z,56.60
2022-09-22T07:55:24.134Z,57.00
2022-09-22T07:57:58.486Z,56.20
2022-09-22T08:00:28.212Z,56.30
2022-09-22T08:02:57.752Z,56.00
2022-09-22T08:05:26.512Z,56.30
2022-09-22T08:07:57.282Z,56.00
2022-09-22T08:10:25.529Z,55.70
2022-09-22T08:12:57.876Z,56.60
2022-09-22T08:15:27.348Z,55.50
2022-09-22T08:17:58.306Z,55.80
2022-09-22T08:20:29.194Z,55.20
2022-09-22T08:23:03.113Z,55.00
2022-09-22T08:25:30.817Z,54.60
2022-09-22T08:28:00.263Z,55.00
2022-09-22T08:30:27.128Z,54.90
2022-09-22T08:32:54.078Z,54.60
2022-09-22T08:35:21.221Z,54.50
2022-09-22T08:37:50.361Z,55.50
2022-09-22T08:40:21.268Z,54.20
2022-09-22T08:42:48.248Z,54.50
2022-09-22T08:45:46.233Z,55.10
2022-09-22T08:48:41.312Z,53.70
2022-09-22T08:51:32.369Z,55.60
2022-09-22T08:54:03.305Z,55.30
2022-09-22T08:56:57.590Z,55.90
2022-09-22T08:59:32.898Z,55.50
2022-09-22T09:02:17.359Z,55.10
2022-09-22T09:04:46.978Z,54.80
2022-09-22T09:07:32.871Z,55.60
2022-09-22T09:10:41.158Z,55.60
2022-09-22T09:13:20.641Z,55.40
2022-09-22T09:16:06.013Z,54.60
2022-09-22T09:18:37.004Z,54.90
2022-09-22T09:21:09.355Z,54.70
2022-09-22T09:26:35.604Z,55.30
2022-09-22T09:29:06.515Z,54.00
2022-09-22T09:31:53.314Z,54.90
2022-09-22T09:34:23.050Z,54.50
2022-09-22T09:36:55.296Z,54.60
2022-09-22T09:39:38.168Z,55.90
2022-09-22T09:42:23.909Z,55.30
2022-09-22T09:44:53.621Z,53.50
2022-09-22T09:47:59.134Z,54.80
2022-09-22T09:50:32.204Z,54.70
2022-09-22T09:53:00.113Z,55.10
2022-09-22T09:55:27.668Z,54.80
2022-09-22T09:58:10.960Z,55.80
2022-09-22T10:00:57.819Z,54.00
2022-09-22T10:03:32.591Z,53.80
2022-09-22T10:06:09.335Z,53.60
2022-09-22T10:08:50.766Z,53.60
2022-09-22T10:11:31.887Z,54.10
2022-09-22T10:13:59.318Z,52.60
2022-09-22T10:16:28.784Z,53.80
2022-09-22T10:18:58.628Z,55.10
2022-09-22T10:21:26.944Z,54.40
2022-09-22T10:23:59.673Z,54.70
2022-09-22T10:26:31.425Z,55.60
2022-09-22T10:29:19.230Z,54.10
2022-09-22T10:32:05.793Z,54.40
2022-09-22T10:34:37.975Z,51.70
2022-09-22T10:37:11.918Z,52.10
2022-09-22T10:39:46.328Z,52.60
2022-09-22T10:42:45.466Z,51.80
2022-09-22T10:45:19.313Z,52.20
2022-09-22T10:47:56.257Z,54.40
2022-09-22T10:50:57.496Z,53.50
2022-09-22T10:54:11.406Z,55.90
2022-09-22T10:56:49.526Z,52.90
2022-09-22T10:59:19.420Z,53.10
2022-09-22T11:02:04.810Z,52.40
2022-09-22T11:04:46.596Z,51.70
2022-09-22T11:07:43.894Z,55.00
2022-09-22T11:10:56.276Z,54.30
2022-09-22T11:13:57.946Z,55.00
2022-09-22T11:16:46.582Z,54.40
2022-09-22T11:19:57.258Z,51.00
2022-09-22T11:22:51.512Z,51.80
2022-09-22T11:25:40.005Z,53.20
2022-09-22T11:28:13.045Z,52.40
2022-09-22T11:30:46.703Z,53.00
2022-09-22T11:33:45.228Z,54.70
2022-09-22T11:36:48.058Z,53.50
2022-09-22T11:39:33.530Z,51.20
2022-09-22T11:42:20.307Z,54.20
2022-09-22T11:45:08.256Z,54.70
2022-09-22T11:47:53.881Z,50.20
2022-09-22T11:50:26.381Z,50.30
2022-09-22T11:53:13.107Z,51.20
2022-09-22T11:56:00.945Z,52.00
2022-09-22T11:58:31.254Z,54.10
2022-09-22T12:01:13.128Z,56.50
2022-09-22T12:03:47.675Z,55.70
2022-09-22T12:06:18.650Z,53.60
2022-09-22T12:11:28.314Z,53.20
2022-09-22T12:13:57.268Z,51.80
2022-09-22T12:16:29.219Z,54.40
2022-09-22T12:19:02.022Z,55.20
2022-09-22T12:21:50.659Z,55.40
2022-09-22T12:24:17.614Z,55.60
2022-09-22T12:26:47.203Z,55.40
2022-09-22T12:29:14.374Z,53.00
2022-09-22T12:31:44.867Z,53.40
2022-09-22T12:34:19.243Z,53.00
2022-09-22T12:36:47.413Z,52.10
2022-09-22T12:39:18.518Z,51.80
2022-09-22T12:41:57.950Z,50.80
2022-09-22T12:44:28.829Z,50.50
2022-09-22T12:47:14.476Z,53.40
2022-09-22T12:49:50.924Z,49.70
2022-09-22T12:52:40.873Z,53.30
2022-09-22T12:55:40.115Z,51.70
2022-09-22T12:58:22.223Z,50.70
2022-09-22T13:00:50.910Z,50.90
2022-09-22T13:03:26.749Z,51.70
2022-09-22T13:06:24.153Z,52.80
2022-09-22T13:08:53.748Z,52.00
2022-09-22T13:11:40.916Z,52.90
2022-09-22T13:14:53.645Z,55.30
2022-09-22T13:17:46.230Z,53.90
2022-09-22T13:20:31.025Z,53.60
2022-09-22T13:23:05.712Z,48.80
2022-09-22T13:25:32.672Z,51.30
2022-09-22T13:28:11.778Z,55.50
2022-09-22T13:30:40.564Z,56.50
2022-09-22T13:33:27.963Z,54.60
2022-09-22T13:36:08.231Z,53.00
2022-09-22T13:38:44.011Z,52.30
2022-09-22T13:41:27.025Z,54.20
2022-09-22T13:44:10.674Z,53.20
2022-09-22T13:46:47.054Z,54.00
2022-09-22T13:49:31.179Z,54.90
2022-09-22T13:52:27.398Z,53.60
2022-09-22T13:55:00.597Z,54.20
2022-09-22T13:57:31.003Z,54.50
2022-09-22T14:00:03.526Z,53.60
2022-09-22T14:02:32.592Z,54.40
2022-09-22T14:05:03.005Z,51.90
2022-09-22T14:07:32.367Z,53.90
2022-09-22T14:10:01.534Z,54.60
2022-09-22T14:12:29.490Z,54.80
2022-09-22T14:14:57.107Z,53.50
2022-09-22T14:17:28.736Z,52.90
2022-09-22T14:20:02.982Z,53.80
2022-09-22T14:22:33.588Z,53.10
2022-09-22T14:25:03.606Z,53.50
2022-09-22T14:27:49.215Z,52.70
2022-09-22T14:30:17.939Z,52.00
2022-09-22T14:32:54.817Z,55.50
2022-09-22T14:35:29.239Z,56.60
2022-09-22T14:38:05.434Z,55.40
2022-09-22T14:40:38.491Z,54.90
2022-09-22T14:43:23.965Z,54.00
2022-09-22T14:46:06.093Z,52.70
2022-09-22T14:48:38.427Z,53.30
2022-09-22T14:51:17.383Z,53.70
2022-09-22T14:54:15.586Z,54.50
2022-09-22T14:56:43.864Z,53.60
2022-09-22T14:59:35.727Z,54.20
2022-09-22T15:02:22.286Z,55.50
2022-09-22T15:04:52.226Z,55.00
2022-09-22T15:07:30.459Z,55.20
2022-09-22T15:10:01.150Z,55.90
2022-09-22T15:12:46.165Z,54.50
2022-09-22T15:15:24.358Z,54.50
2022-09-22T15:18:13.459Z,54.10
2022-09-22T15:20:48.311Z,55.40
2022-09-22T15:23:28.815Z,54.00
2022-09-22T15:25:56.203Z,52.80
2022-09-22T15:28:24.714Z,53.00
2022-09-22T15:30:52.882Z,52.80
2022-09-22T15:33:21.300Z,52.80
2022-09-22T15:35:53.582Z,53.30
2022-09-22T15:38:26.876Z,52.30
2022-09-22T15:40:54.223Z,52.80
2022-09-22T15:43:23.367Z,53.00
2022-09-22T15:45:53.953Z,53.00
2022-09-22T15:48:27.909Z,53.10
2022-09-22T15:50:56.575Z,52.50
2022-09-22T15:53:24.440Z,52.80
2022-09-22T15:55:52.911Z,52.60
2022-09-22T15:58:23.226Z,52.50
2022-09-22T16:00:52.452Z,53.20
2022-09-22T16:03:22.553Z,53.50
2022-09-22T16:06:08.471Z,53.90
2022-09-22T16:08:44.640Z,52.80
2022-09-22T16:11:17.098Z,53.40
2022-09-22T16:13:44.576Z,53.00
2022-09-22T16:16:12.625Z,52.40
2022-09-22T16:18:41.927Z,52.90
2022-09-22T16:21:29.456Z,52.80
2022-09-22T16:24:02.878Z,53.10
2022-09-22T16:26:31.848Z,53.70
2022-09-22T16:28:59.304Z,53.90
2022-09-22T16:31:27.184Z,53.90
2022-09-22T16:34:00.368Z,54.10
2022-09-22T16:36:31.121Z,54.20
2022-09-22T16:38:57.978Z,54.30
2022-09-22T16:41:25.789Z,54.40
2022-09-22T16:43:54.322Z,54.70
2022-09-22T16:46:28.221Z,54.50
2022-09-22T16:49:12.197Z,54.60
2022-09-22T16:51:41.382Z,54.70
2022-09-22T16:54:12.357Z,54.60
2022-09-22T16:56:40.410Z,54.90
2022-09-22T16:59:07.817Z,54.90
2022-09-22T17:01:37.703Z,54.80
2022-09-22T17:04:06.499Z,54.70
2022-09-22T17:06:36.131Z,54.70
2022-09-22T17:09:03.567Z,54.40
2022-09-22T17:11:34.576Z,54.50
2022-09-22T17:14:04.630Z,54.70
2022-09-22T17:16:34.950Z,55.40
2022-09-22T17:19:07.042Z,54.60
2022-09-22T17:21:37.115Z,54.60
2022-09-22T17:24:05.778Z,54.60
2022-09-22T17:26:38.649Z,54.50
2022-09-22T17:29:06.675Z,54.60
2022-09-22T17:31:36.346Z,54.70
2022-09-22T17:34:03.681Z,54.70
2022-09-22T17:36:30.985Z,55.20
2022-09-22T17:39:00.340Z,54.40
2022-09-22T17:41:31.435Z,54.10
2022-09-22T17:44:01.310Z,53.80
2022-09-22T17:46:31.509Z,53.90
2022-09-22T17:49:17.187Z,53.80
2022-09-22T17:52:05.285Z,53.70
2022-09-22T17:54:59.211Z,53.80
2022-09-22T17:57:28.421Z,54.00
2022-09-22T17:59:56.494Z,54.20
2022-09-22T18:02:28.808Z,54.30
2022-09-22T18:04:55.846Z,53.70
2022-09-22T18:07:25.714Z,54.20
2022-09-22T18:09:55.455Z,54.40
2022-09-22T18:12:24.817Z,54.70
2022-09-22T18:14:53.453Z,55.30
2022-09-22T18:17:24.669Z,55.20
2022-09-22T18:19:54.566Z,54.90
2022-09-22T18:22:24.732Z,54.90
2022-09-22T18:24:56.231Z,54.90
2022-09-22T18:27:27.040Z,54.80
2022-09-22T18:29:58.376Z,54.60
2022-09-22T18:32:28.509Z,54.80
2022-09-22T18:34:55.696Z,54.90
2022-09-22T18:37:23.635Z,54.80
2022-09-22T18:39:51.074Z,54.80
2022-09-22T18:42:19.626Z,54.90
2022-09-22T18:44:47.273Z,54.90
2022-09-22T18:47:16.497Z,54.80
2022-09-22T18:49:44.922Z,55.00
2022-09-22T18:52:12.065Z,54.90
2022-09-22T18:54:43.074Z,55.00
2022-09-22T18:57:13.440Z,55.10
2022-09-22T18:59:40.763Z,55.20
2022-09-22T19:02:11.906Z,55.20
2022-09-22T19:04:39.515Z,55.80
2022-09-22T19:07:24.963Z,55.00
2022-09-22T19:09:52.993Z,55.10
2022-09-22T19:12:20.432Z,55.80
2022-09-22T19:14:48.158Z,55.30
2022-09-22T19:17:17.254Z,55.30
2022-09-22T19:19:46.057Z,55.10
2022-09-22T19:22:13.008Z,54.70
2022-09-22T19:24:40.576Z,54.70
2022-09-22T19:27:09.204Z,54.80
2022-09-22T19:29:36.475Z,55.40
2022-09-22T19:32:04.753Z,54.60
2022-09-22T19:34:32.236Z,54.50
2022-09-22T19:36:59.592Z,54.60
2022-09-22T19:39:27.043Z,54.50
2022-09-22T19:41:54.906Z,54.40
2022-09-22T19:44:23.292Z,54.40
2022-09-22T19:46:50.435Z,54.40
2022-09-22T19:49:17.913Z,54.30
2022-09-22T19:51:45.187Z,54.40
2022-09-22T19:54:12.492Z,54.90
2022-09-22T19:56:39.605Z,54.60
2022-09-22T19:59:10.030Z,54.60
2022-09-22T20:01:41.633Z,54.60
2022-09-22T20:04:19.676Z,54.40
2022-09-22T20:06:48.719Z,54.20
2022-09-22T20:09:16.876Z,54.20
2022-09-22T20:11:46.709Z,54.30
2022-09-22T20:14:22.113Z,54.20
2022-09-22T20:16:51.316Z,54.10
2022-09-22T20:19:18.956Z,54.10
2022-09-22T20:21:46.787Z,54.40
2022-09-22T20:24:17.027Z,53.90
2022-09-22T20:26:47.883Z,53.80
2022-09-22T20:29:16.530Z,54.10
2022-09-22T20:31:44.731Z,54.10
2022-09-22T20:34:18.722Z,54.70
2022-09-22T20:36:45.544Z,54.50
2022-09-22T20:39:14.952Z,54.30
2022-09-22T20:41:43.044Z,54.50
2022-09-22T20:44:14.605Z,54.50
2022-09-22T20:46:47.815Z,54.70
2022-09-22T20:49:15.077Z,54.60
2022-09-22T20:51:42.489Z,54.80
2022-09-22T20:54:09.911Z,54.80
2022-09-22T20:56:41.954Z,54.90
2022-09-22T20:59:09.646Z,55.00
2022-09-22T21:01:36.839Z,55.20
2022-09-22T21:04:03.945Z,55.80
2022-09-22T21:06:31.139Z,55.30
2022-09-22T21:09:16.907Z,55.10
2022-09-22T21:11:44.232Z,55.10
2022-09-22T21:14:11.966Z,55.10
2022-09-22T21:16:39.515Z,55.80
2022-09-22T21:19:07.671Z,55.10
2022-09-22T21:21:38.611Z,55.30
2022-09-22T21:24:05.749Z,55.30
2022-09-22T21:26:33.288Z,55.20
2022-09-22T21:29:00.664Z,55.10
2022-09-22T21:31:28.458Z,55.10
2022-09-22T21:33:55.793Z,55.20
2022-09-22T21:36:23.917Z,55.20
2022-09-22T21:38:58.972Z,55.30
2022-09-22T21:41:28.024Z,55.30
2022-09-22T21:43:55.436Z,55.20
2022-09-22T21:46:29.630Z,55.10
2022-09-22T21:49:00.946Z,55.20
2022-09-22T21:51:30.356Z,55.10
2022-09-22T21:53:57.294Z,55.20
2022-09-22T21:56:25.788Z,55.30
2022-09-22T21:58:54.292Z,55.50
2022-09-22T22:01:29.320Z,55.20
2022-09-22T22:03:57.777Z,55.20
2022-09-22T22:06:31.141Z,55.30
2022-09-22T22:09:07.026Z,55.30
2022-09-22T22:11:39.739Z,55.10
2022-09-22T22:14:10.254Z,55.20
2022-09-22T22:16:45.414Z,55.50
2022-09-22T22:19:14.576Z,55.10
2022-09-22T22:21:43.271Z,55.30
2022-09-22T22:24:18.244Z,55.20
2022-09-22T22:26:51.556Z,55.30
2022-09-22T22:29:19.894Z,55.50
2022-09-22T22:31:51.619Z,55.50
2022-09-22T22:34:21.146Z,55.40
2022-09-22T22:36:48.777Z,55.50
2022-09-22T22:39:16.466Z,55.40
2022-09-22T22:41:43.374Z,55.40
2022-09-22T22:44:12.301Z,55.50
2022-09-22T22:46:39.214Z,55.60
2022-09-22T22:49:09.068Z,55.50
2022-09-22T22:51:36.149Z,55.60
2022-09-22T22:54:03.185Z,55.70
2022-09-22T22:56:30.146Z,55.50
2022-09-22T22:58:57.170Z,55.40
2022-09-22T23:01:29.103Z,55.40
2022-09-22T23:03:58.507Z,55.60
2022-09-22T23:06:34.158Z,55.80
2022-09-22T23:09:01.211Z,55.50
2022-09-22T23:11:35.421Z,55.50
2022-09-22T23:14:03.740Z,55.50
2022-09-22T23:16:33.757Z,56.20
2022-09-22T23:19:02.820Z,55.50
2022-09-22T23:21:33.145Z,55.50
2022-09-22T23:24:03.529Z,55.70
2022-09-22T23:26:30.680Z,55.80
2022-09-22T23:29:05.086Z,55.70
2022-09-22T23:31:32.560Z,55.70
2022-09-22T23:33:59.425Z,55.70
2022-09-22T23:36:28.505Z,55.70
2022-09-22T23:38:56.996Z,55.80
2022-09-22T23:41:24.284Z,55.80
2022-09-22T23:43:51.281Z,55.70
2022-09-22T23:46:18.354Z,55.80
2022-09-22T23:48:47.435Z,55.70
2022-09-22T23:51:14.666Z,56.00
2022-09-22T23:53:41.909Z,55.80
2022-09-22T23:56:09.232Z,55.80
2022-09-22T23:58:38.079Z,56.40
